Tropical Cyclones
[Index]
Main Index Home Page Stock Weather Photos Extreme Storms Discussion Storm News and Storm Chasing Reports Tropical Cyclones / Hurricanes / Typhoons Weather Data and Links Wild Fires / Bushfires Weather Observation Techniques Weather Picture Catalogue Tornado Pictures and Reports Stock Video Footage and DVDs for sale
Season 1983-1984 Tropical Cyclone DARYL Track Map
Season 1983-1984 Summaries: [BoM-AU] [JTWC-AU] [JTWC-SIO] [JTWC-SPAC] [JTWC-SH]
<<- Previous TC | JTWC 1983-1984 Season | Next TC ->>

click for intensity scale information  Lat/long Grid: Show Hide

 Date Labels: Show Hide

Joint Typhoon Warning Centre Cyclone Data

Name: DARYL

07 Mar 1984 12:00 UTC to 18 Mar 1984 00:00 UTC

    date/time    lat    long     hPa   cat  kts
1984-03-07 12   10.5   100.3                  25          
1984-03-07 18   10.4   100.7                  25          
1984-03-08 00   10.3   101.2                  25          
1984-03-08 06   10.2   101.7                  25          
1984-03-08 12   10.2   102.3                  30          
1984-03-08 18   10.3   102.8                  30          
1984-03-09 00   10.6   103.1                  30          
1984-03-09 06   11.1   103.2                  25          
1984-03-09 12   11.5   103.0                  25          
1984-03-09 18   11.7   102.6                  25          
1984-03-10 00   11.9   102.1                  25          
1984-03-10 06   12.1   101.6                  25          
1984-03-10 12   12.3   101.0                  25          
1984-03-10 18   12.5   100.1                  25          
1984-03-11 00   12.7    99.0                  30          
1984-03-11 06   12.9    97.8                  35          
1984-03-11 12   13.0    96.7            1     40          
1984-03-11 18   13.0    95.7            1     40          
1984-03-12 00   13.0    94.6            1     45          
1984-03-12 06   13.2    93.4            1     45          
1984-03-12 12   13.6    92.2            1     50          
1984-03-12 18   14.2    90.9            2     55          
1984-03-13 00   14.8    89.7            2     65          
1984-03-13 06   15.3    88.7            2     65          
1984-03-13 12   15.9    87.8            2     65          
1984-03-13 18   16.4    86.9            2     65          
1984-03-14 00   17.0    86.0            2     70          
1984-03-14 06   17.8    85.0            3     75          
1984-03-14 12   18.6    84.0            3     75          
1984-03-14 18   19.3    83.3            3     75          
1984-03-15 00   19.9    82.7            2     70          
1984-03-15 06   20.4    81.9            2     70          
1984-03-15 12   20.9    81.1            2     65          
1984-03-15 18   21.3    80.4            2     60          
1984-03-16 00   21.7    79.8            2     55          
1984-03-16 06   22.1    79.4            1     50          
1984-03-16 12   22.5    79.1            1     45          
1984-03-16 18   23.1    78.8            1     40          
1984-03-17 00   23.7    78.5            1     40          
1984-03-17 06   24.3    78.4                  35          
1984-03-17 12   24.9    78.5                  30          
1984-03-17 18   25.5    78.8                  25          
1984-03-18 00   26.2    79.2                  25          
Winds are 1-min average.

Tropical cyclone tracks developed by Michael Bath using data from the Joint Typhoon Warning Centre Best Tracks and Google Maps.


[Australian Severe Weather index] [Copyright Notice] [Email Contacts] [Search This Site] [Privacy Policy]
Document: tropical_cyclone_daryl.htm Updated: 18 September 2016